Time,TemperatureF,DewpointF,PressureIn,WindDirection,WindDirectionDegrees,WindSpeedMPH,WindSpeedGustMPH,Humidity,HourlyPrecipIn,Conditions,Clouds,dailyrainin,SoftwareType,DateUTC
2013-01-09 00:00:00,43.9,43.9,17.60,SSE,153,0.0,0.0,100,0.00,,OVC055,0.00,VWS V14.01,2013-01-09 05:00:00,
2013-01-09 00:01:00,43.9,43.9,17.60,SSE,153,0.0,0.0,100,0.00,,OVC055,0.00,VWS V14.01,2013-01-09 05:01:00,
2013-01-09 00:03:00,44.1,44.1,17.60,SSE,153,0.0,0.0,100,0.00,,OVC055,0.00,VWS V14.01,2013-01-09 05:03:00,
2013-01-09 00:08:00,44.2,44.2,17.60,SSE,153,0.0,0.0,100,0.00,,OVC055,0.00,VWS V14.01,2013-01-09 05:08:00,
2013-01-09 00:13:00,44.6,44.6,17.60,SSE,153,0.0,0.0,100,0.00,,OVC028,0.00,VWS V14.01,2013-01-09 05:13:00,
2013-01-09 00:18:00,45.0,45.0,17.60,SSE,153,0.0,0.0,100,0.00,,OVC028,0.00,VWS V14.01,2013-01-09 05:18:00,
2013-01-09 00:23:00,45.1,45.1,17.60,SSE,153,0.0,0.0,100,0.00,,OVC028,0.00,VWS V14.01,2013-01-09 05:23:00,
2013-01-09 00:28:00,45.0,45.0,17.60,SSE,153,0.0,0.0,100,0.00,,OVC028,0.00,VWS V14.01,2013-01-09 05:28:00,
2013-01-09 00:33:00,44.6,44.6,17.60,SSE,153,0.0,0.0,100,0.00,,OVC028,0.00,VWS V14.01,2013-01-09 05:33:00,
2013-01-09 00:38:00,44.6,44.6,17.60,SSE,153,0.0,0.0,100,0.00,,OVC028,0.00,VWS V14.01,2013-01-09 05:38:00,
2013-01-09 00:43:00,44.4,44.4,17.60,SSE,153,0.0,0.0,100,0.00,,OVC028,0.00,VWS V14.01,2013-01-09 05:43:00,
2013-01-09 00:48:00,44.2,44.2,17.60,SSE,153,0.0,0.0,100,0.00,,OVC028,0.00,VWS V14.01,2013-01-09 05:48:00,
2013-01-09 00:53:00,44.1,44.1,17.60,SSE,153,0.0,0.0,100,0.00,,OVC028,0.00,VWS V14.01,2013-01-09 05:53:00,
2013-01-09 00:58:00,44.1,44.1,17.60,SSE,153,0.0,0.0,100,0.00,,OVC028,0.00,VWS V14.01,2013-01-09 05:58:00,
2013-01-09 01:03:00,44.1,44.1,17.60,SSE,153,0.0,0.0,100,0.00,,OVC028,0.00,VWS V14.01,2013-01-09 06:03:00,
2013-01-09 01:08:00,44.1,44.1,17.60,SSE,153,0.0,0.0,100,0.00,,OVC028,0.00,VWS V14.01,2013-01-09 06:08:00,
2013-01-09 01:13:00,44.1,44.1,17.60,SSE,153,0.0,0.0,100,0.00,,OVC028,0.00,VWS V14.01,2013-01-09 06:13:00,
2013-01-09 01:18:00,44.1,44.1,17.60,SSE,153,0.0,0.0,100,0.00,,OVC028,0.00,VWS V14.01,2013-01-09 06:18:00,
2013-01-09 01:23:00,44.1,44.1,17.60,SSE,153,0.0,0.0,100,0.00,,OVC028,0.00,VWS V14.01,2013-01-09 06:23:00,
2013-01-09 01:28:00,44.1,44.1,17.60,SSE,153,0.0,0.0,100,0.00,,OVC028,0.00,VWS V14.01,2013-01-09 06:28:00,
2013-01-09 01:33:00,44.1,44.1,17.60,SSE,153,0.0,0.0,100,0.00,,OVC036,0.00,VWS V14.01,2013-01-09 06:33:00,
2013-01-09 01:38:00,44.1,44.1,17.60,SSE,153,0.0,0.0,100,0.00,,OVC036,0.00,VWS V14.01,2013-01-09 06:38:00,
2013-01-09 01:43:00,44.1,44.1,17.60,SSE,153,0.0,0.0,100,0.00,,OVC036,0.00,VWS V14.01,2013-01-09 06:43:00,
2013-01-09 01:48:00,44.1,44.1,17.60,SSE,153,0.0,0.0,100,0.00,,OVC036,0.00,VWS V14.01,2013-01-09 06:48:00,
2013-01-09 01:53:00,44.1,44.1,17.60,SSE,153,0.0,0.0,100,0.00,,OVC026,0.00,VWS V14.01,2013-01-09 06:53:00,
2013-01-09 01:58:00,44.1,44.1,17.60,SSE,153,0.0,0.0,100,0.00,,OVC026,0.00,VWS V14.01,2013-01-09 06:58:00,
2013-01-09 02:03:00,43.9,43.9,17.60,SSE,153,0.0,0.0,100,0.00,,OVC026,0.00,VWS V14.01,2013-01-09 07:03:00,
2013-01-09 02:08:00,43.9,43.9,17.60,SSE,153,0.0,0.0,100,0.00,,OVC026,0.00,VWS V14.01,2013-01-09 07:08:00,
2013-01-09 02:13:00,43.7,43.7,17.60,SSE,153,0.0,0.0,100,0.00,,OVC038,0.00,VWS V14.01,2013-01-09 07:13:00,
2013-01-09 02:18:00,43.7,43.7,17.60,SSE,153,0.0,0.0,100,0.00,,OVC038,0.00,VWS V14.01,2013-01-09 07:18:00,
2013-01-09 02:23:00,43.7,43.7,17.60,SSE,153,0.0,0.0,100,0.00,,OVC038,0.00,VWS V14.01,2013-01-09 07:23:00,
2013-01-09 02:28:00,43.9,43.9,17.60,SSE,153,0.0,0.0,100,0.00,,OVC038,0.00,VWS V14.01,2013-01-09 07:28:00,
2013-01-09 02:33:00,43.9,43.9,17.60,SSE,153,0.0,0.0,100,0.00,,OVC033,0.00,VWS V14.01,2013-01-09 07:33:00,
2013-01-09 02:38:00,43.9,43.9,17.60,SSE,153,0.0,0.0,100,0.00,,OVC033,0.00,VWS V14.01,2013-01-09 07:38:00,
2013-01-09 02:43:00,43.9,43.9,17.60,SSE,153,0.0,0.0,100,0.00,,OVC033,0.00,VWS V14.01,2013-01-09 07:43:00,
2013-01-09 02:48:00,43.9,43.9,17.60,SSE,153,0.0,0.0,100,0.00,,OVC033,0.00,VWS V14.01,2013-01-09 07:48:00,
2013-01-09 02:53:00,43.9,43.9,17.60,SSE,153,0.0,0.0,100,0.00,,OVC024,0.00,VWS V14.01,2013-01-09 07:53:00,
2013-01-09 02:58:00,43.7,43.7,17.60,SSE,153,0.0,0.0,100,0.00,,OVC024,0.00,VWS V14.01,2013-01-09 07:58:00,
2013-01-09 03:03:00,43.7,43.7,17.60,SSE,153,0.0,0.0,100,0.00,,OVC024,0.00,VWS V14.01,2013-01-09 08:03:00,
2013-01-09 03:08:00,43.7,43.7,17.60,SSE,153,0.0,0.0,100,0.00,,OVC024,0.00,VWS V14.01,2013-01-09 08:08:00,
2013-01-09 03:13:00,43.5,43.5,17.60,SSE,153,0.0,0.0,100,0.00,,OVC024,0.00,VWS V14.01,2013-01-09 08:13:00,
2013-01-09 03:18:00,43.2,43.2,17.60,SSE,153,0.0,0.0,100,0.00,,OVC024,0.00,VWS V14.01,2013-01-09 08:18:00,
2013-01-09 03:23:00,43.0,43.0,17.60,SSE,153,0.0,0.0,100,0.00,,OVC024,0.00,VWS V14.01,2013-01-09 08:23:00,
2013-01-09 03:28:00,42.4,42.4,17.60,SSE,153,0.0,0.0,100,0.00,,OVC024,0.00,VWS V14.01,2013-01-09 08:28:00,
2013-01-09 03:33:00,42.3,42.3,17.60,SSE,153,0.0,0.0,100,0.00,,BKN050,0.00,VWS V14.01,2013-01-09 08:33:00,
2013-01-09 03:38:00,42.1,42.1,17.60,SSE,153,0.0,0.0,100,0.00,,BKN050,0.00,VWS V14.01,2013-01-09 08:38:00,
2013-01-09 03:43:00,41.9,41.9,17.60,SSE,153,0.0,0.0,100,0.00,,BKN050,0.00,VWS V14.01,2013-01-09 08:43:00,
2013-01-09 03:48:00,41.9,41.9,17.60,SSE,153,0.0,0.0,100,0.00,,BKN050,0.00,VWS V14.01,2013-01-09 08:48:00,
2013-01-09 03:53:00,41.7,41.7,17.60,SSE,153,0.0,0.0,100,0.00,,FEW050,0.00,VWS V14.01,2013-01-09 08:53:00,
2013-01-09 03:58:00,41.5,41.5,17.60,SSE,153,0.0,0.0,100,0.00,,FEW050,0.00,VWS V14.01,2013-01-09 08:58:00,
2013-01-09 04:03:00,41.4,41.4,17.60,SSE,153,0.0,0.0,100,0.00,,FEW050,0.00,VWS V14.01,2013-01-09 09:03:00,
2013-01-09 04:08:00,41.0,41.0,17.60,SSE,153,0.0,0.0,100,0.00,,FEW050,0.00,VWS V14.01,2013-01-09 09:08:00,
2013-01-09 04:13:00,40.8,40.8,17.60,SSE,153,0.0,0.0,100,0.00,,FEW050,0.00,VWS V14.01,2013-01-09 09:13:00,
2013-01-09 04:18:00,40.6,40.6,17.60,SSE,153,0.0,0.0,100,0.00,,FEW050,0.00,VWS V14.01,2013-01-09 09:18:00,
2013-01-09 04:23:00,40.5,40.5,17.60,SSE,153,0.0,0.0,100,0.00,,FEW050,0.00,VWS V14.01,2013-01-09 09:23:00,
2013-01-09 04:28:00,40.3,40.3,17.60,SSE,153,0.0,0.0,100,0.00,,FEW050,0.00,VWS V14.01,2013-01-09 09:28:00,
2013-01-09 04:33:00,40.1,40.1,17.60,SSE,153,0.0,0.0,100,0.00,,FEW050,0.00,VWS V14.01,2013-01-09 09:33:00,
2013-01-09 04:38:00,39.9,39.9,17.60,SSE,153,0.0,0.0,100,0.00,,FEW050,0.00,VWS V14.01,2013-01-09 09:38:00,
2013-01-09 04:43:00,39.9,39.9,17.60,SSE,153,0.0,0.0,100,0.00,,SCT050,0.00,VWS V14.01,2013-01-09 09:43:00,
2013-01-09 04:48:00,40.1,40.1,17.60,SSE,153,0.0,0.0,100,0.00,,SCT050,0.00,VWS V14.01,2013-01-09 09:48:00,
2013-01-09 04:53:00,40.5,40.5,17.60,SSE,153,0.0,0.0,100,0.00,,SCT050,0.00,VWS V14.01,2013-01-09 09:53:00,
2013-01-09 04:58:00,40.8,40.8,17.60,SSE,153,0.0,0.0,100,0.00,,SCT050,0.00,VWS V14.01,2013-01-09 09:58:00,
2013-01-09 05:03:00,41.4,41.4,17.60,SSE,153,0.0,0.0,100,0.00,,FEW050,0.00,VWS V14.01,2013-01-09 10:03:00,
2013-01-09 05:08:00,41.4,41.4,17.60,SSE,153,0.0,0.0,100,0.00,,FEW050,0.00,VWS V14.01,2013-01-09 10:08:00,
2013-01-09 05:13:00,41.4,41.4,17.60,SSE,153,0.0,0.0,100,0.00,,FEW050,0.00,VWS V14.01,2013-01-09 10:13:00,
2013-01-09 05:18:00,41.5,41.5,17.60,SSE,153,0.0,0.0,100,0.00,,FEW050,0.00,VWS V14.01,2013-01-09 10:18:00,
2013-01-09 05:23:00,41.7,41.7,17.60,SSE,153,0.0,0.0,100,0.00,,CLR,0.00,VWS V14.01,2013-01-09 10:23:00,
2013-01-09 05:28:00,41.9,41.9,17.60,SSE,153,0.0,0.0,100,0.00,,CLR,0.00,VWS V14.01,2013-01-09 10:28:00,
2013-01-09 05:33:00,41.9,41.9,17.60,SSE,153,0.0,0.0,100,0.00,,CLR,0.00,VWS V14.01,2013-01-09 10:33:00,
2013-01-09 05:38:00,41.9,41.9,17.60,SSE,153,0.0,0.0,100,0.00,,CLR,0.00,VWS V14.01,2013-01-09 10:38:00,
2013-01-09 05:43:00,41.9,41.9,17.60,SSE,153,0.0,0.0,100,0.00,,FEW041,0.00,VWS V14.01,2013-01-09 10:43:00,
2013-01-09 05:48:00,41.7,41.7,17.60,SSE,153,0.0,0.0,100,0.00,,FEW041,0.00,VWS V14.01,2013-01-09 10:48:00,
2013-01-09 05:53:00,41.4,41.4,17.60,SSE,153,0.0,0.0,100,0.00,,FEW041,0.00,VWS V14.01,2013-01-09 10:53:00,
2013-01-09 05:58:00,41.0,41.0,17.60,SSE,153,0.0,0.0,100,0.00,,FEW041,0.00,VWS V14.01,2013-01-09 10:58:00,
2013-01-09 06:03:00,40.8,40.8,17.60,SSE,153,0.0,0.0,100,0.00,,BKN047,0.00,VWS V14.01,2013-01-09 11:03:00,
2013-01-09 06:08:00,40.5,40.5,17.60,SSE,153,0.0,0.0,100,0.00,,BKN047,0.00,VWS V14.01,2013-01-09 11:08:00,
2013-01-09 06:13:00,40.6,40.6,17.60,SSE,153,0.0,0.0,100,0.00,,BKN047,0.00,VWS V14.01,2013-01-09 11:13:00,
2013-01-09 06:18:00,40.8,40.8,17.60,SSE,153,0.0,0.0,100,0.00,,BKN047,0.00,VWS V14.01,2013-01-09 11:18:00,
2013-01-09 06:23:00,40.6,40.6,17.60,SSE,153,0.0,0.0,100,0.00,,OVC044,0.00,VWS V14.01,2013-01-09 11:23:00,
2013-01-09 06:28:00,40.3,40.3,17.60,SSE,153,0.0,0.0,100,0.00,,OVC044,0.00,VWS V14.01,2013-01-09 11:28:00,
2013-01-09 06:33:00,40.3,40.3,17.60,SSE,153,0.0,0.0,100,0.00,,OVC044,0.00,VWS V14.01,2013-01-09 11:33:00,
2013-01-09 06:38:00,40.5,40.5,17.60,SSE,153,0.0,0.0,100,0.00,,OVC044,0.00,VWS V14.01,2013-01-09 11:38:00,
2013-01-09 06:43:00,40.6,40.6,17.60,SSE,153,0.0,0.0,100,0.00,,BKN044,0.00,VWS V14.01,2013-01-09 11:43:00,
2013-01-09 06:48:00,41.0,41.0,17.60,SSE,153,0.0,0.0,100,0.00,,BKN044,0.00,VWS V14.01,2013-01-09 11:48:00,
2013-01-09 06:53:00,41.0,41.0,17.60,SSE,153,0.0,0.0,100,0.00,,BKN044,0.00,VWS V14.01,2013-01-09 11:53:00,
2013-01-09 06:58:00,40.5,40.5,17.60,SSE,153,0.0,0.0,100,0.00,,BKN044,0.00,VWS V14.01,2013-01-09 11:58:00,
2013-01-09 07:03:00,39.9,39.9,17.60,SSE,153,0.0,0.0,100,0.00,,FEW044,0.00,VWS V14.01,2013-01-09 12:03:00,
2013-01-09 07:08:00,39.6,39.6,17.60,SSE,153,0.0,0.0,100,0.00,,FEW044,0.00,VWS V14.01,2013-01-09 12:08:00,
2013-01-09 07:13:00,39.4,39.4,17.60,SSE,153,0.0,0.0,100,0.00,,FEW044,0.00,VWS V14.01,2013-01-09 12:13:00,
2013-01-09 07:18:00,39.2,39.2,17.60,SSE,153,0.0,0.0,100,0.00,,FEW044,0.00,VWS V14.01,2013-01-09 12:18:00,
2013-01-09 07:23:00,38.8,38.8,17.60,SSE,153,0.0,0.0,100,0.00,,CLR,0.00,VWS V14.01,2013-01-09 12:23:00,
2013-01-09 07:28:00,38.7,38.7,17.60,SSE,153,0.0,0.0,100,0.00,,CLR,0.00,VWS V14.01,2013-01-09 12:28:00,
2013-01-09 07:33:00,38.8,38.8,17.60,SSE,153,0.0,0.0,100,0.00,,CLR,0.00,VWS V14.01,2013-01-09 12:33:00,
2013-01-09 07:38:00,38.8,38.8,17.60,SSE,153,0.0,0.0,100,0.00,,CLR,0.00,VWS V14.01,2013-01-09 12:38:00,
2013-01-09 07:43:00,39.0,39.0,17.60,SSE,153,0.0,0.0,100,0.00,,CLR,0.00,VWS V14.01,2013-01-09 12:43:00,
2013-01-09 07:47:00,39.2,39.2,17.60,SSE,153,0.0,0.0,100,0.00,,CLR,0.00,VWS V14.01,2013-01-09 12:47:00,
2013-01-09 07:52:00,39.4,39.4,17.60,SSE,153,0.0,0.0,100,0.00,,CLR,0.00,VWS V14.01,2013-01-09 12:52:00,
2013-01-09 07:57:00,39.7,39.7,17.60,SSE,153,0.0,0.0,100,0.00,,CLR,0.00,VWS V14.01,2013-01-09 12:57:00,
2013-01-09 08:02:00,39.7,39.7,17.60,SSE,153,0.0,0.0,100,0.00,,,0.00,VWS V14.01,2013-01-09 13:02:00,
2013-01-09 08:07:00,39.9,39.9,17.60,SSE,153,0.0,0.0,100,0.00,,,0.00,VWS V14.01,2013-01-09 13:07:00,
2013-01-09 08:12:00,40.1,40.1,17.60,SSE,153,0.0,0.0,100,0.00,,,0.00,VWS V14.01,2013-01-09 13:12:00,
2013-01-09 08:17:00,40.8,40.8,17.60,SSE,153,0.0,0.0,100,0.00,,,0.00,VWS V14.01,2013-01-09 13:17:00,
2013-01-09 08:22:00,42.3,42.3,17.60,SSE,153,0.0,0.0,100,0.00,,SCT050,0.00,VWS V14.01,2013-01-09 13:22:00,
2013-01-09 08:27:00,43.7,43.7,17.60,SSE,152,0.0,0.0,100,0.00,,SCT050,0.00,VWS V14.01,2013-01-09 13:27:00,
2013-01-09 08:32:00,44.8,44.8,17.60,SSE,152,0.0,0.0,100,0.00,,SCT050,0.00,VWS V14.01,2013-01-09 13:32:00,
2013-01-09 08:37:00,45.9,45.9,17.60,SSE,152,0.0,0.0,100,0.00,,SCT050,0.00,VWS V14.01,2013-01-09 13:37:00,
2013-01-09 08:42:00,46.6,46.6,17.60,SSE,152,0.0,0.0,100,0.00,,OVC050,0.00,VWS V14.01,2013-01-09 13:42:00,
2013-01-09 08:47:00,47.3,47.3,17.60,SSE,153,0.0,0.0,100,0.00,,OVC050,0.00,VWS V14.01,2013-01-09 13:47:00,
2013-01-09 08:52:00,48.0,48.0,17.60,SSE,153,0.0,0.0,100,0.00,,OVC050,0.00,VWS V14.01,2013-01-09 13:52:00,
2013-01-09 08:57:00,48.4,48.4,17.60,SSE,153,0.0,0.0,100,0.00,,OVC050,0.00,VWS V14.01,2013-01-09 13:57:00,
2013-01-09 09:02:00,48.4,48.4,17.60,SSE,153,0.0,0.0,100,0.00,,OVC050,0.00,VWS V14.01,2013-01-09 14:02:00,
2013-01-09 09:07:00,48.7,48.7,17.60,SSE,153,0.0,0.0,100,0.00,,OVC050,0.00,VWS V14.01,2013-01-09 14:07:00,
2013-01-09 09:12:00,48.9,48.9,17.60,SSE,154,0.0,0.0,100,0.00,,OVC050,0.00,VWS V14.01,2013-01-09 14:12:00,
2013-01-09 09:17:00,48.9,48.9,17.60,SSE,155,0.0,0.0,100,0.00,,OVC050,0.00,VWS V14.01,2013-01-09 14:17:00,
2013-01-09 09:22:00,48.7,48.7,17.60,SE,144,0.0,0.0,100,0.00,,BKN050,0.00,VWS V14.01,2013-01-09 14:22:00,
2013-01-09 09:27:00,48.9,48.9,17.60,SE,127,0.0,0.0,100,0.00,,BKN050,0.00,VWS V14.01,2013-01-09 14:27:00,
2013-01-09 09:32:00,48.9,48.9,17.60,ESE,123,0.0,0.0,100,0.00,,BKN050,0.00,VWS V14.01,2013-01-09 14:32:00,
2013-01-09 09:37:00,49.1,48.8,17.60,SE,136,0.0,0.0,99,0.00,,BKN050,0.00,VWS V14.01,2013-01-09 14:37:00,
2013-01-09 09:42:00,49.3,49.3,17.60,SE,136,0.0,0.0,100,0.00,,OVC050,0.00,VWS V14.01,2013-01-09 14:42:00,
2013-01-09 09:47:00,49.3,49.0,17.60,SE,145,0.0,0.0,99,0.00,,OVC050,0.00,VWS V14.01,2013-01-09 14:47:00,
2013-01-09 09:52:00,49.6,48.5,17.60,SSE,155,0.0,0.0,96,0.00,,OVC050,0.00,VWS V14.01,2013-01-09 14:52:00,
2013-01-09 09:57:00,50.0,48.1,17.60,SE,137,0.0,0.0,93,0.00,,OVC050,0.00,VWS V14.01,2013-01-09 14:57:00,
2013-01-09 10:02:00,50.0,47.2,17.60,SE,141,0.0,0.0,90,0.00,,OVC046,0.00,VWS V14.01,2013-01-09 15:02:00,
2013-01-09 10:07:00,50.0,47.2,17.60,SSE,152,0.0,0.0,90,0.00,,OVC046,0.00,VWS V14.01,2013-01-09 15:07:00,
2013-01-09 10:12:00,49.8,47.0,17.60,SSE,149,0.0,0.0,90,0.00,,OVC046,0.00,VWS V14.01,2013-01-09 15:12:00,
2013-01-09 10:17:00,49.6,45.9,17.60,SSE,158,0.0,0.0,87,0.00,,OVC046,0.00,VWS V14.01,2013-01-09 15:17:00,
2013-01-09 10:22:00,49.5,45.8,17.60,SSE,155,2.2,2.2,87,0.00,,OVC044,0.00,VWS V14.01,2013-01-09 15:22:00,
2013-01-09 10:27:00,49.6,45.9,17.60,SE,135,0.0,0.0,87,0.00,,OVC044,0.00,VWS V14.01,2013-01-09 15:27:00,
2013-01-09 10:32:00,49.8,46.1,17.60,SE,128,0.0,2.2,87,0.00,,OVC044,0.00,VWS V14.01,2013-01-09 15:32:00,
2013-01-09 10:37:00,49.6,45.0,17.60,SE,130,0.0,0.0,84,0.00,,OVC044,0.00,VWS V14.01,2013-01-09 15:37:00,
2013-01-09 10:42:00,49.5,44.8,17.60,ESE,123,0.0,2.7,84,0.00,,BKN032,0.00,VWS V14.01,2013-01-09 15:42:00,
2013-01-09 10:47:00,49.5,44.8,17.60,SE,127,0.0,0.0,84,0.00,,BKN032,0.00,VWS V14.01,2013-01-09 15:47:00,
2013-01-09 10:52:00,50.0,46.3,17.60,ESE,111,0.0,0.0,87,0.00,,BKN032,0.00,VWS V14.01,2013-01-09 15:52:00,
2013-01-09 10:57:00,50.2,46.5,17.60,SE,127,0.0,0.0,87,0.00,,BKN032,0.00,VWS V14.01,2013-01-09 15:57:00,
2013-01-09 11:02:00,50.5,45.9,17.60,ESE,120,0.0,0.0,84,0.00,,BKN032,0.00,VWS V14.01,2013-01-09 16:02:00,
2013-01-09 11:07:00,51.1,47.3,17.60,SE,142,0.0,0.0,87,0.00,,BKN032,0.00,VWS V14.01,2013-01-09 16:07:00,
2013-01-09 11:12:00,51.6,46.0,17.60,ESE,114,0.0,0.0,81,0.00,,BKN032,0.00,VWS V14.01,2013-01-09 16:12:00,
2013-01-09 11:17:00,51.8,46.2,17.60,SE,146,2.2,2.2,81,0.00,,BKN032,0.00,VWS V14.01,2013-01-09 16:17:00,
2013-01-09 11:22:00,51.6,46.0,17.60,ESE,117,2.2,2.7,81,0.00,,FEW030,0.00,VWS V14.01,2013-01-09 16:22:00,
2013-01-09 11:27:00,51.4,45.8,17.60,SE,141,2.7,3.1,81,0.00,,FEW030,0.00,VWS V14.01,2013-01-09 16:27:00,
2013-01-09 11:32:00,51.1,45.5,17.60,SE,130,2.7,2.7,81,0.00,,FEW030,0.00,VWS V14.01,2013-01-09 16:32:00,
2013-01-09 11:37:00,51.6,47.0,17.60,SE,142,0.0,2.2,84,0.00,,FEW030,0.00,VWS V14.01,2013-01-09 16:37:00,
2013-01-09 11:42:00,52.5,46.9,17.60,SE,130,0.0,0.0,81,0.00,,CLR,0.00,VWS V14.01,2013-01-09 16:42:00,
2013-01-09 11:47:00,53.1,47.4,17.60,SE,133,0.0,2.2,81,0.00,,CLR,0.00,VWS V14.01,2013-01-09 16:47:00,
2013-01-09 11:52:00,53.8,47.1,17.60,SE,146,0.0,0.0,78,0.00,,CLR,0.00,VWS V14.01,2013-01-09 16:52:00,
2013-01-09 11:57:00,54.1,47.4,17.60,SE,132,0.0,2.7,78,0.00,,CLR,0.00,VWS V14.01,2013-01-09 16:57:00,
2013-01-09 12:02:00,54.1,46.4,17.60,SE,132,2.2,2.7,75,0.00,,CLR,0.00,VWS V14.01,2013-01-09 17:02:00,
2013-01-09 12:07:00,53.8,46.0,17.60,SE,129,2.2,3.1,75,0.00,,CLR,0.00,VWS V14.01,2013-01-09 17:07:00,
2013-01-09 12:12:00,54.1,47.4,17.60,SE,133,2.7,2.7,78,0.00,,CLR,0.00,VWS V14.01,2013-01-09 17:12:00,
2013-01-09 12:17:00,53.6,43.7,17.60,SE,139,0.0,2.2,69,0.00,,CLR,0.00,VWS V14.01,2013-01-09 17:17:00,
2013-01-09 12:22:00,52.7,46.0,17.60,SE,140,2.7,2.7,78,0.00,,CLR,0.00,VWS V14.01,2013-01-09 17:22:00,
2013-01-09 12:27:00,52.7,47.0,17.60,SE,128,2.2,2.2,81,0.00,,CLR,0.00,VWS V14.01,2013-01-09 17:27:00,
2013-01-09 12:32:00,53.2,46.6,17.60,ESE,115,2.2,3.1,78,0.00,,CLR,0.00,VWS V14.01,2013-01-09 17:32:00,
2013-01-09 12:37:00,52.9,46.2,17.60,ESE,123,2.7,2.7,78,0.00,,CLR,0.00,VWS V14.01,2013-01-09 17:37:00,
2013-01-09 12:42:00,51.6,46.0,17.60,SE,138,2.7,2.7,81,0.00,,BKN120,0.00,VWS V14.01,2013-01-09 17:42:00,
2013-01-09 12:47:00,50.5,45.9,17.60,SE,126,2.2,2.7,84,0.00,,BKN120,0.00,VWS V14.01,2013-01-09 17:47:00,
2013-01-09 12:52:00,50.2,48.2,17.60,SE,138,2.2,2.7,93,0.00,,BKN120,0.00,VWS V14.01,2013-01-09 17:52:00,
2013-01-09 12:57:00,50.2,49.1,17.60,ESE,123,3.6,3.6,96,0.00,,BKN120,0.00,VWS V14.01,2013-01-09 17:57:00,
2013-01-09 13:02:00,50.4,50.1,17.60,ESE,113,2.2,2.7,99,0.00,,BKN120,0.00,VWS V14.01,2013-01-09 18:02:00,
2013-01-09 13:07:00,50.4,49.3,17.60,SE,135,2.7,3.1,96,0.00,,BKN120,0.00,VWS V14.01,2013-01-09 18:07:00,
2013-01-09 13:12:00,51.1,51.1,17.60,SE,133,0.0,2.2,100,0.00,,BKN120,0.00,VWS V14.01,2013-01-09 18:12:00,
2013-01-09 13:17:00,52.0,49.1,17.60,SE,125,0.0,0.0,90,0.00,,BKN120,0.00,VWS V14.01,2013-01-09 18:17:00,
2013-01-09 13:22:00,52.0,48.2,17.60,SE,135,2.2,2.7,87,0.00,,BKN110,0.00,VWS V14.01,2013-01-09 18:22:00,
2013-01-09 13:27:00,52.9,49.1,17.60,SE,142,3.1,3.1,87,0.00,,BKN110,0.00,VWS V14.01,2013-01-09 18:27:00,
2013-01-09 13:32:00,52.3,47.7,17.60,SE,131,2.2,3.1,84,0.00,,BKN110,0.00,VWS V14.01,2013-01-09 18:32:00,
2013-01-09 13:37:00,52.7,49.8,17.60,South,172,2.7,3.1,90,0.00,,BKN110,0.00,VWS V14.01,2013-01-09 18:37:00,
2013-01-09 13:41:00,53.1,50.2,17.60,South,186,0.0,2.2,90,0.00,,SCT110,0.00,VWS V14.01,2013-01-09 18:41:00,
2013-01-09 13:42:00,53.2,50.4,17.60,SSE,147,0.0,0.0,90,0.00,,SCT110,0.00,VWS V14.01,2013-01-09 18:42:00,
2013-01-09 13:44:00,53.4,49.7,17.60,SSE,160,2.7,2.7,87,0.00,,SCT110,0.00,VWS V14.01,2013-01-09 18:44:00,
2013-01-09 13:48:00,53.4,48.7,17.60,SSE,150,2.7,2.7,84,0.00,,SCT110,0.00,VWS V14.01,2013-01-09 18:48:00,
2013-01-09 13:53:00,52.9,47.2,17.60,SSE,157,0.0,2.7,81,0.00,,SCT110,0.00,VWS V14.01,2013-01-09 18:53:00,
2013-01-09 13:58:00,52.0,47.3,17.60,SSE,163,0.0,0.0,84,0.00,,BKN100,0.00,VWS V14.01,2013-01-09 18:58:00,
2013-01-09 14:03:00,51.4,48.6,17.60,SSE,168,0.0,2.2,90,0.00,,BKN100,0.00,VWS V14.01,2013-01-09 19:03:00,
2013-01-09 14:08:00,51.3,49.3,17.60,SSE,160,2.2,2.2,93,0.00,,BKN100,0.00,VWS V14.01,2013-01-09 19:08:00,
2013-01-09 14:13:00,51.4,51.2,17.60,South,170,0.0,0.0,99,0.00,,BKN100,0.00,VWS V14.01,2013-01-09 19:13:00,
2013-01-09 14:18:00,51.8,51.5,17.60,South,179,0.0,0.0,99,0.00,,OVC110,0.00,VWS V14.01,2013-01-09 19:18:00,
2013-01-09 14:23:00,52.3,52.1,17.60,South,191,0.0,0.0,99,0.00,,OVC110,0.00,VWS V14.01,2013-01-09 19:23:00,
2013-01-09 14:28:00,52.7,51.6,17.60,South,190,0.0,0.0,96,0.00,,OVC110,0.00,VWS V14.01,2013-01-09 19:28:00,
2013-01-09 14:33:00,52.9,51.8,17.60,South,183,0.0,0.0,96,0.00,,OVC110,0.00,VWS V14.01,2013-01-09 19:33:00,
2013-01-09 14:38:00,53.1,51.1,17.60,South,181,0.0,0.0,93,0.00,,OVC110,0.00,VWS V14.01,2013-01-09 19:38:00,
2013-01-09 14:44:00,53.4,51.5,17.60,South,181,0.0,0.0,93,0.00,,OVC110,0.00,VWS V14.01,2013-01-09 19:44:00,
2013-01-09 14:49:00,53.8,50.9,17.60,South,181,0.0,0.0,90,0.00,,OVC110,0.00,VWS V14.01,2013-01-09 19:49:00,
2013-01-09 14:54:00,53.8,50.9,17.60,South,181,0.0,0.0,90,0.00,,OVC110,0.00,VWS V14.01,2013-01-09 19:54:00,
2013-01-09 14:59:00,53.8,50.9,17.60,South,181,0.0,0.0,90,0.00,,BKN120,0.00,VWS V14.01,2013-01-09 19:59:00,
2013-01-09 15:04:00,54.0,50.2,17.60,South,180,0.0,0.0,87,0.00,,BKN120,0.00,VWS V14.01,2013-01-09 20:04:00,
2013-01-09 15:08:00,54.1,50.4,17.60,South,180,0.0,0.0,87,0.00,,BKN120,0.00,VWS V14.01,2013-01-09 20:08:00,
2013-01-09 15:13:00,54.1,49.4,17.60,ESE,108,0.0,0.0,84,0.00,,BKN120,0.00,VWS V14.01,2013-01-09 20:13:00,
2013-01-09 15:18:00,53.2,48.5,17.60,ESE,113,0.0,0.0,84,0.00,,FEW120,0.00,VWS V14.01,2013-01-09 20:18:00,
2013-01-09 15:23:00,52.5,48.8,17.60,ESE,110,0.0,0.0,87,0.00,,FEW120,0.00,VWS V14.01,2013-01-09 20:23:00,
2013-01-09 15:28:00,52.0,49.1,17.60,SE,124,0.0,0.0,90,0.00,,FEW120,0.00,VWS V14.01,2013-01-09 20:28:00,
2013-01-09 15:33:00,51.6,50.5,17.60,SE,134,0.0,0.0,96,0.00,,FEW120,0.00,VWS V14.01,2013-01-09 20:33:00,
2013-01-09 15:38:00,51.6,51.3,17.60,SE,142,0.0,0.0,99,0.00,,CLR,0.00,VWS V14.01,2013-01-09 20:38:00,
2013-01-09 15:43:00,51.4,51.4,17.60,SE,124,0.0,0.0,100,0.00,,CLR,0.00,VWS V14.01,2013-01-09 20:43:00,
2013-01-09 15:48:00,51.4,51.4,17.60,East,99,0.0,0.0,100,0.00,,CLR,0.00,VWS V14.01,2013-01-09 20:48:00,
2013-01-09 15:53:00,50.9,50.9,17.60,SE,125,0.0,0.0,100,0.00,,CLR,0.00,VWS V14.01,2013-01-09 20:53:00,
2013-01-09 15:58:00,50.2,50.2,17.60,SE,125,0.0,0.0,100,0.00,,CLR,0.00,VWS V14.01,2013-01-09 20:58:00,
2013-01-09 16:03:00,49.8,49.8,17.60,SE,134,0.0,0.0,100,0.00,,CLR,0.00,VWS V14.01,2013-01-09 21:03:00,
2013-01-09 16:08:00,49.6,49.6,17.60,SSE,159,0.0,0.0,100,0.00,,CLR,0.00,VWS V14.01,2013-01-09 21:08:00,
2013-01-09 16:13:00,49.6,49.6,17.60,SE,139,0.0,0.0,100,0.00,,CLR,0.00,VWS V14.01,2013-01-09 21:13:00,
2013-01-09 16:18:00,49.5,49.5,17.60,ESE,119,2.2,2.2,100,0.00,,CLR,0.00,VWS V14.01,2013-01-09 21:18:00,
2013-01-09 16:23:00,49.6,49.6,17.60,SE,125,0.0,0.0,100,0.00,,CLR,0.00,VWS V14.01,2013-01-09 21:23:00,
2013-01-09 16:28:00,49.8,49.8,17.60,SE,130,0.0,2.2,100,0.00,,CLR,0.00,VWS V14.01,2013-01-09 21:28:00,
2013-01-09 16:33:00,50.2,50.2,17.60,ESE,120,0.0,0.0,100,0.00,,CLR,0.00,VWS V14.01,2013-01-09 21:33:00,
2013-01-09 16:38:00,50.4,50.4,17.60,SE,130,2.2,3.1,100,0.00,,BKN110,0.00,VWS V14.01,2013-01-09 21:38:00,
2013-01-09 16:43:00,50.5,50.5,17.60,SSE,165,2.2,2.7,100,0.00,,BKN110,0.00,VWS V14.01,2013-01-09 21:43:00,
2013-01-09 16:48:00,50.9,50.9,17.60,SSE,154,2.2,3.1,100,0.00,,BKN110,0.00,VWS V14.01,2013-01-09 21:48:00,
2013-01-09 16:53:00,51.3,51.3,17.60,SSE,161,3.6,3.6,100,0.00,,BKN110,0.00,VWS V14.01,2013-01-09 21:53:00,
2013-01-09 16:58:00,52.2,52.2,17.60,SSW,192,3.1,4.0,100,0.00,,BKN120,0.00,VWS V14.01,2013-01-09 21:58:00,
2013-01-09 17:03:00,53.2,53.2,17.60,South,173,2.7,2.7,100,0.00,,BKN120,0.00,VWS V14.01,2013-01-09 22:03:00,
2013-01-09 17:08:00,54.0,51.1,17.60,SE,137,0.0,2.7,90,0.00,,BKN120,0.00,VWS V14.01,2013-01-09 22:08:00,
2013-01-09 17:13:00,53.2,50.4,17.60,SE,128,0.0,2.2,90,0.00,,BKN120,0.00,VWS V14.01,2013-01-09 22:13:00,
2013-01-09 17:18:00,52.9,50.9,17.60,SSE,151,0.0,2.7,93,0.00,,SCT120,0.00,VWS V14.01,2013-01-09 22:18:00,
2013-01-09 17:23:00,52.5,50.6,17.60,South,177,0.0,0.0,93,0.00,,SCT120,0.00,VWS V14.01,2013-01-09 22:23:00,
2013-01-09 17:28:00,52.2,51.9,17.60,SSE,153,2.2,2.7,99,0.00,,SCT120,0.00,VWS V14.01,2013-01-09 22:28:00,
2013-01-09 17:33:00,52.0,52.0,17.60,SE,141,2.2,2.2,100,0.00,,SCT120,0.00,VWS V14.01,2013-01-09 22:33:00,
2013-01-09 17:38:00,51.8,51.8,17.60,South,170,2.7,2.7,100,0.00,,CLR,0.00,VWS V14.01,2013-01-09 22:38:00,
2013-01-09 17:43:00,51.8,51.8,17.60,SSE,152,0.0,2.2,100,0.00,,CLR,0.00,VWS V14.01,2013-01-09 22:43:00,
2013-01-09 17:48:00,51.6,51.6,17.60,SE,143,0.0,2.2,100,0.00,,CLR,0.00,VWS V14.01,2013-01-09 22:48:00,
2013-01-09 17:53:00,51.6,51.6,17.60,South,176,2.7,2.7,100,0.00,,CLR,0.00,VWS V14.01,2013-01-09 22:53:00,
2013-01-09 17:58:00,51.8,51.8,17.60,SSE,165,3.1,3.1,100,0.00,,CLR,0.00,VWS V14.01,2013-01-09 22:58:00,
2013-01-09 18:03:00,52.2,52.2,17.60,SSE,155,2.7,2.7,100,0.00,,CLR,0.00,VWS V14.01,2013-01-09 23:03:00,
2013-01-09 18:08:00,52.5,52.5,17.60,South,186,3.1,3.1,100,0.00,,CLR,0.00,VWS V14.01,2013-01-09 23:08:00,
2013-01-09 18:13:00,52.7,52.7,17.60,South,181,2.2,2.2,100,0.00,,CLR,0.00,VWS V14.01,2013-01-09 23:13:00,
2013-01-09 18:18:00,53.1,53.1,17.60,South,176,2.2,2.7,100,0.00,,CLR,0.00,VWS V14.01,2013-01-09 23:18:00,
2013-01-09 18:23:00,53.2,53.2,17.60,South,170,2.7,2.7,100,0.00,,CLR,0.00,VWS V14.01,2013-01-09 23:23:00,
2013-01-09 18:28:00,53.4,53.4,17.60,SSE,164,2.7,2.7,100,0.00,,CLR,0.00,VWS V14.01,2013-01-09 23:28:00,
2013-01-09 18:33:00,53.4,53.4,17.60,South,177,2.7,2.7,100,0.00,,CLR,0.00,VWS V14.01,2013-01-09 23:33:00,
2013-01-09 18:38:00,53.4,53.4,17.60,SSE,167,2.2,2.2,100,0.00,,CLR,0.00,VWS V14.01,2013-01-09 23:38:00,
2013-01-09 18:43:00,53.2,53.2,17.60,SSE,168,0.0,2.2,100,0.00,,CLR,0.00,VWS V14.01,2013-01-09 23:43:00,
2013-01-09 18:48:00,53.1,53.1,17.60,South,171,0.0,2.7,100,0.00,,CLR,0.00,VWS V14.01,2013-01-09 23:48:00,
2013-01-09 18:53:00,52.9,52.9,17.60,South,188,2.7,2.7,100,0.00,,CLR,0.00,VWS V14.01,2013-01-09 23:53:00,
2013-01-09 18:58:00,52.7,52.7,17.60,SSE,164,2.7,2.7,100,0.00,,CLR,0.00,VWS V14.01,2013-01-09 23:58:00,
2013-01-09 19:03:00,52.5,52.5,17.60,South,184,2.7,2.7,100,0.00,,CLR,0.00,VWS V14.01,2013-01-10 00:03:00,
2013-01-09 19:08:00,52.3,52.3,17.60,South,184,2.7,3.6,100,0.00,,CLR,0.00,VWS V14.01,2013-01-10 00:08:00,
2013-01-09 19:13:00,52.5,52.5,17.60,South,178,2.7,2.7,100,0.00,,CLR,0.00,VWS V14.01,2013-01-10 00:13:00,
2013-01-09 19:18:00,52.7,52.7,17.60,SSE,162,2.2,2.2,100,0.00,,CLR,0.00,VWS V14.01,2013-01-10 00:18:00,
2013-01-09 19:23:00,52.7,52.7,17.60,SSE,158,2.7,2.7,100,0.00,,FEW060,0.00,VWS V14.01,2013-01-10 00:23:00,
2013-01-09 19:28:00,52.7,52.7,17.60,South,179,2.7,2.7,100,0.00,,FEW060,0.00,VWS V14.01,2013-01-10 00:28:00,
2013-01-09 19:33:00,52.5,52.5,17.60,South,186,2.7,2.7,100,0.00,,FEW060,0.00,VWS V14.01,2013-01-10 00:33:00,
2013-01-09 19:38:00,52.5,52.5,17.60,South,183,2.2,2.7,100,0.00,,FEW060,0.00,VWS V14.01,2013-01-10 00:38:00,
2013-01-09 19:43:00,52.7,52.7,17.60,SSW,198,2.7,2.7,100,0.00,,SCT060,0.00,VWS V14.01,2013-01-10 00:43:00,
2013-01-09 19:48:00,52.9,52.9,17.60,South,190,2.7,2.7,100,0.00,,SCT060,0.00,VWS V14.01,2013-01-10 00:48:00,
2013-01-09 19:53:00,53.1,53.1,17.60,SSW,194,2.7,2.7,100,0.00,,SCT060,0.00,VWS V14.01,2013-01-10 00:53:00,
2013-01-09 19:58:00,53.1,53.1,17.60,SSW,199,2.7,3.1,100,0.00,,SCT060,0.00,VWS V14.01,2013-01-10 00:58:00,
2013-01-09 20:03:00,53.1,53.1,17.60,SSW,197,2.7,2.7,100,0.00,,OVC060,0.00,VWS V14.01,2013-01-10 01:03:00,
2013-01-09 20:08:00,52.9,52.9,17.60,SSE,167,2.7,2.7,100,0.00,,OVC060,0.00,VWS V14.01,2013-01-10 01:08:00,
2013-01-09 20:13:00,52.7,52.7,17.60,SW,218,2.7,2.7,100,0.00,,OVC060,0.00,VWS V14.01,2013-01-10 01:13:00,
2013-01-09 20:18:00,52.7,52.7,17.60,SSW,199,2.2,3.1,100,0.00,,OVC060,0.00,VWS V14.01,2013-01-10 01:18:00,
2013-01-09 20:23:00,52.9,52.9,17.60,SSW,196,2.2,3.1,100,0.00,,OVC060,0.00,VWS V14.01,2013-01-10 01:23:00,
2013-01-09 20:28:00,52.9,52.9,17.60,SW,232,2.7,3.1,100,0.00,,OVC060,0.00,VWS V14.01,2013-01-10 01:28:00,
2013-01-09 20:33:00,52.9,52.9,17.60,SW,230,4.0,4.0,100,0.00,,OVC060,0.00,VWS V14.01,2013-01-10 01:33:00,
2013-01-09 20:38:00,52.5,52.5,17.60,WSW,252,2.7,2.7,100,0.00,,OVC060,0.00,VWS V14.01,2013-01-10 01:38:00,
2013-01-09 20:43:00,51.6,51.6,17.60,West,262,3.6,3.6,100,0.00,,BKN060,0.00,VWS V14.01,2013-01-10 01:43:00,
2013-01-09 20:48:00,50.5,49.5,17.60,SW,223,4.0,4.0,96,0.00,,BKN060,0.00,VWS V14.01,2013-01-10 01:48:00,
2013-01-09 20:53:00,49.8,49.5,17.60,WSW,253,3.1,3.6,99,0.00,,BKN060,0.00,VWS V14.01,2013-01-10 01:53:00,
2013-01-09 20:58:00,49.3,49.3,17.60,West,260,4.0,4.0,100,0.00,,BKN060,0.00,VWS V14.01,2013-01-10 01:58:00,
2013-01-09 21:03:00,48.9,48.9,17.60,WSW,254,4.0,4.0,100,0.00,,SCT060,0.00,VWS V14.01,2013-01-10 02:03:00,
2013-01-09 21:08:00,48.9,48.9,17.60,West,259,3.6,3.6,100,0.00,,SCT060,0.00,VWS V14.01,2013-01-10 02:08:00,
2013-01-09 21:13:00,48.9,48.9,17.60,WSW,250,2.7,4.0,100,0.00,,SCT060,0.00,VWS V14.01,2013-01-10 02:13:00,
2013-01-09 21:18:00,49.1,49.1,17.60,SW,235,2.7,3.1,100,0.00,,SCT060,0.00,VWS V14.01,2013-01-10 02:18:00,
2013-01-09 21:23:00,49.1,49.1,17.60,WSW,254,2.7,2.7,100,0.00,,SCT060,0.00,VWS V14.01,2013-01-10 02:23:00,
2013-01-09 21:28:00,48.9,48.9,17.60,WSW,248,2.7,2.7,100,0.00,,SCT060,0.00,VWS V14.01,2013-01-10 02:28:00,
2013-01-09 21:33:00,48.9,48.9,17.60,WSW,240,2.7,2.7,100,0.00,,SCT060,0.00,VWS V14.01,2013-01-10 02:33:00,
2013-01-09 21:38:00,48.7,48.7,17.60,SW,229,2.7,3.1,100,0.00,,SCT060,0.00,VWS V14.01,2013-01-10 02:38:00,
2013-01-09 21:43:00,48.4,48.4,17.60,SW,228,2.7,2.7,100,0.00,,CLR,0.00,VWS V14.01,2013-01-10 02:43:00,
2013-01-09 21:48:00,48.2,48.2,17.60,SW,224,2.7,2.7,100,0.00,,CLR,0.00,VWS V14.01,2013-01-10 02:48:00,
2013-01-09 21:53:00,47.8,47.8,17.60,SW,222,3.1,3.1,100,0.00,,CLR,0.00,VWS V14.01,2013-01-10 02:53:00,
2013-01-09 21:58:00,47.5,47.5,17.60,SW,225,2.7,2.7,100,0.00,,CLR,0.00,VWS V14.01,2013-01-10 02:58:00,
2013-01-09 22:03:00,47.3,47.3,17.60,SW,223,2.7,2.7,100,0.00,,CLR,0.00,VWS V14.01,2013-01-10 03:03:00,
2013-01-09 22:08:00,47.1,47.1,17.60,SW,228,2.2,2.7,100,0.00,,CLR,0.00,VWS V14.01,2013-01-10 03:08:00,
2013-01-09 22:13:00,46.9,46.9,17.60,SW,226,2.2,2.2,100,0.00,,CLR,0.00,VWS V14.01,2013-01-10 03:13:00,
2013-01-09 22:18:00,46.8,46.8,17.60,SW,224,2.2,2.7,100,0.00,,CLR,0.00,VWS V14.01,2013-01-10 03:18:00,
2013-01-09 22:23:00,46.4,46.4,17.60,SW,229,2.2,2.2,100,0.00,,CLR,0.00,VWS V14.01,2013-01-10 03:23:00,
2013-01-09 22:28:00,46.4,46.4,17.60,SW,216,2.7,2.7,100,0.00,,CLR,0.00,VWS V14.01,2013-01-10 03:28:00,
2013-01-09 22:33:00,46.4,46.4,17.60,SW,214,2.2,2.7,100,0.00,,CLR,0.00,VWS V14.01,2013-01-10 03:33:00,
2013-01-09 22:38:00,46.6,46.6,17.60,SW,225,2.7,2.7,100,0.00,,CLR,0.00,VWS V14.01,2013-01-10 03:38:00,
2013-01-09 22:43:00,47.1,47.1,17.60,SW,222,3.1,3.1,100,0.00,,CLR,0.00,VWS V14.01,2013-01-10 03:43:00,
2013-01-09 22:48:00,47.5,47.5,17.60,SW,225,2.7,3.1,100,0.00,,CLR,0.00,VWS V14.01,2013-01-10 03:48:00,
2013-01-09 22:53:00,47.8,47.8,17.60,SW,231,3.1,3.1,100,0.00,,CLR,0.00,VWS V14.01,2013-01-10 03:53:00,
2013-01-09 22:58:00,47.8,47.8,17.60,SW,236,3.1,3.6,100,0.00,,CLR,0.00,VWS V14.01,2013-01-10 03:58:00,
2013-01-09 23:03:00,47.8,47.8,17.60,SW,229,3.6,4.0,100,0.00,,CLR,0.00,VWS V14.01,2013-01-10 04:03:00,
2013-01-09 23:08:00,47.8,47.8,17.60,SW,221,3.6,3.6,100,0.00,,CLR,0.00,VWS V14.01,2013-01-10 04:08:00,
2013-01-09 23:13:00,47.7,47.7,17.60,SW,231,3.1,3.1,100,0.00,,CLR,0.00,VWS V14.01,2013-01-10 04:13:00,
2013-01-09 23:18:00,47.5,47.5,17.60,SW,232,3.6,4.0,100,0.00,,CLR,0.00,VWS V14.01,2013-01-10 04:18:00,
2013-01-09 23:23:00,47.7,46.6,17.60,SW,228,2.7,3.6,96,0.00,,CLR,0.00,VWS V14.01,2013-01-10 04:23:00,
2013-01-09 23:28:00,47.7,44.9,17.60,SW,235,3.6,3.6,90,0.00,,CLR,0.00,VWS V14.01,2013-01-10 04:28:00,
2013-01-09 23:33:00,48.0,43.4,17.60,WSW,238,3.6,4.0,84,0.00,,CLR,0.00,VWS V14.01,2013-01-10 04:33:00,
2013-01-09 23:38:00,48.6,42.0,17.60,SW,229,4.0,4.0,78,0.00,,CLR,0.00,VWS V14.01,2013-01-10 04:38:00,
2013-01-09 23:43:00,49.1,37.1,17.60,SW,236,3.6,4.0,63,0.00,,CLR,0.00,VWS V14.01,2013-01-10 04:43:00,
2013-01-09 23:48:00,49.1,37.1,17.60,WSW,237,4.0,4.0,63,0.00,,CLR,0.00,VWS V14.01,2013-01-10 04:48:00,
2013-01-09 23:53:00,49.3,37.2,17.60,SW,226,4.0,4.0,63,0.00,,CLR,0.00,VWS V14.01,2013-01-10 04:53:00,
2013-01-09 23:58:00,49.5,34.9,17.60,SW,232,4.5,4.5,57,0.00,,CLR,0.00,VWS V14.01,2013-01-10 04:58:00,